createdAt,value
2022-08-03T00:02:15.589Z,95711.63
2022-08-03T00:04:42.746Z,95710.90
2022-08-03T00:07:09.423Z,95707.05
2022-08-03T00:09:36.946Z,95704.27
2022-08-03T00:12:04.321Z,95704.45
2022-08-03T00:14:31.251Z,95707.17
2022-08-03T00:16:58.134Z,95701.45
2022-08-03T00:19:25.146Z,95699.63
2022-08-03T00:21:52.093Z,95700.59
2022-08-03T00:24:19.063Z,95700.27
2022-08-03T00:26:46.136Z,95699.50
2022-08-03T00:29:13.350Z,95701.73
2022-08-03T00:31:52.777Z,95699.40
2022-08-03T00:34:36.472Z,95700.38
2022-08-03T00:37:13.403Z,95699.02
2022-08-03T00:39:40.452Z,95698.64
2022-08-03T00:42:07.416Z,95697.94
2022-08-03T00:44:44.293Z,95702.17
2022-08-03T00:47:12.255Z,95702.14
2022-08-03T00:49:41.017Z,95700.46
2022-08-03T00:52:10.579Z,95693.20
2022-08-03T00:54:38.652Z,95689.82
2022-08-03T00:57:06.695Z,95689.44
2022-08-03T00:59:34.138Z,95691.42
2022-08-03T01:02:01.204Z,95689.41
2022-08-03T01:04:28.048Z,95685.73
2022-08-03T01:07:05.218Z,95686.67
2022-08-03T01:09:55.222Z,95686.61
2022-08-03T01:12:56.399Z,95686.21
2022-08-03T01:15:58.152Z,95695.42
2022-08-03T01:18:44.991Z,95699.21
2022-08-03T01:21:25.312Z,95701.13
2022-08-03T01:24:34.652Z,95701.58
2022-08-03T01:27:17.576Z,95700.80
2022-08-03T01:29:50.372Z,95704.64
2022-08-03T01:32:53.494Z,95707.23
2022-08-03T01:35:27.608Z,95708.80
2022-08-03T01:38:02.670Z,95708.83
2022-08-03T01:40:33.223Z,95712.99
2022-08-03T01:43:03.308Z,95710.83
2022-08-03T01:45:34.205Z,95705.10
2022-08-03T01:48:03.522Z,95701.40
2022-08-03T01:50:31.710Z,95705.92
2022-08-03T01:52:59.652Z,95701.77
2022-08-03T01:55:28.692Z,95701.77
2022-08-03T01:58:05.178Z,95698.13
2022-08-03T02:00:38.255Z,95695.13
2022-08-03T02:03:06.980Z,95693.08
2022-08-03T02:05:35.766Z,95692.40
2022-08-03T02:08:04.693Z,95688.42
2022-08-03T02:10:35.467Z,95686.30
2022-08-03T02:13:07.347Z,95683.57
2022-08-03T02:15:36.678Z,95685.63
2022-08-03T02:18:07.158Z,95685.80
2022-08-03T02:20:37.220Z,95686.86
2022-08-03T02:23:06.110Z,95683.53
2022-08-03T02:25:38.393Z,95683.83
2022-08-03T02:28:12.108Z,95687.48
2022-08-03T02:30:40.478Z,95687.56
2022-08-03T02:33:11.933Z,95683.02
2022-08-03T02:35:40.677Z,95686.22
2022-08-03T02:38:09.818Z,95685.80
2022-08-03T02:40:40.271Z,95683.72
2022-08-03T02:43:16.730Z,95681.85
2022-08-03T02:45:47.763Z,95681.40
2022-08-03T02:48:19.523Z,95684.82
2022-08-03T02:50:47.500Z,95684.69
2022-08-03T02:53:17.757Z,95686.41
2022-08-03T02:55:46.848Z,95685.09
2022-08-03T02:58:17.037Z,95689.29
2022-08-03T03:00:45.175Z,95686.98
2022-08-03T03:03:13.101Z,95686.96
2022-08-03T03:05:55.306Z,95687.23
2022-08-03T03:08:28.432Z,95688.52
2022-08-03T03:10:58.813Z,95690.20
2022-08-03T03:13:28.372Z,95689.40
2022-08-03T03:16:00.092Z,95689.85
2022-08-03T03:18:32.958Z,95687.48
2022-08-03T03:21:01.754Z,95693.89
2022-08-03T03:23:30.335Z,95689.56
2022-08-03T03:25:58.718Z,95690.52
2022-08-03T03:28:26.490Z,95691.09
2022-08-03T03:30:54.451Z,95691.23
2022-08-03T03:33:22.758Z,95693.05
2022-08-03T03:35:51.220Z,95694.07
2022-08-03T03:38:19.635Z,95694.29
2022-08-03T03:40:47.877Z,95694.67
2022-08-03T03:43:15.128Z,95697.80
2022-08-03T03:45:44.861Z,95696.58
2022-08-03T03:48:11.892Z,95701.45
2022-08-03T03:50:40.477Z,95705.09
2022-08-03T03:53:12.383Z,95707.14
2022-08-03T03:56:02.114Z,95708.54
2022-08-03T03:58:27.733Z,95708.11
2022-08-03T04:00:54.755Z,95712.40
2022-08-03T04:03:21.727Z,95711.64
2022-08-03T04:06:08.747Z,95717.08
2022-08-03T04:08:54.363Z,95725.25
2022-08-03T04:11:30.014Z,95725.14
2022-08-03T04:14:06.043Z,95728.34
2022-08-03T04:16:38.790Z,95733.16
2022-08-03T04:19:13.658Z,95736.85
2022-08-03T04:21:43.817Z,95735.98
2022-08-03T04:24:13.184Z,95738.66
2022-08-03T04:26:42.933Z,95739.44
2022-08-03T04:29:11.687Z,95738.17
2022-08-03T04:31:39.569Z,95741.02
2022-08-03T04:34:07.347Z,95742.70
2022-08-03T04:36:44.139Z,95738.55
2022-08-03T04:39:16.576Z,95741.91
2022-08-03T04:42:07.329Z,95741.05
2022-08-03T04:44:37.320Z,95743.30
2022-08-03T04:47:04.182Z,95745.90
2022-08-03T04:49:31.986Z,95744.71
2022-08-03T04:51:59.611Z,95747.47
2022-08-03T04:54:26.625Z,95749.56
2022-08-03T04:56:53.349Z,95751.61
2022-08-03T04:59:20.316Z,95755.43
2022-08-03T05:01:47.328Z,95753.06
2022-08-03T05:04:14.146Z,95752.73
2022-08-03T05:06:47.940Z,95752.36
2022-08-03T05:09:15.885Z,95754.15
2022-08-03T05:12:03.108Z,95757.05
2022-08-03T05:14:29.869Z,95756.36
2022-08-03T05:16:56.691Z,95756.04
2022-08-03T05:19:23.554Z,95750.91
2022-08-03T05:21:52.398Z,95748.64
2022-08-03T05:24:19.831Z,95748.81
2022-08-03T05:26:46.654Z,95745.67
2022-08-03T05:29:13.475Z,95749.11
2022-08-03T05:31:40.103Z,95746.90
2022-08-03T05:34:07.949Z,95747.55
2022-08-03T05:36:34.759Z,95749.08
2022-08-03T05:39:02.971Z,95752.66
2022-08-03T05:41:36.588Z,95749.77
2022-08-03T05:44:04.996Z,95750.46
2022-08-03T05:46:32.784Z,95757.10
2022-08-03T05:49:00.336Z,95759.48
2022-08-03T05:51:28.622Z,95760.45
2022-08-03T05:53:55.544Z,95759.55
2022-08-03T05:56:26.789Z,95759.89
2022-08-03T05:58:53.737Z,95764.13
2022-08-03T06:01:21.962Z,95760.77
2022-08-03T06:03:50.397Z,95763.15
2022-08-03T06:06:17.723Z,95762.27
2022-08-03T06:08:45.842Z,95765.21
2022-08-03T06:11:13.080Z,95765.75
2022-08-03T06:13:40.743Z,95766.52
2022-08-03T06:16:08.219Z,95762.70
2022-08-03T06:18:36.196Z,95767.14
2022-08-03T06:21:15.654Z,95764.95
2022-08-03T06:23:55.102Z,95765.27
2022-08-03T06:26:26.563Z,95769.05
2022-08-03T06:28:54.736Z,95767.10
2022-08-03T06:31:25.608Z,95772.50
2022-08-03T06:34:34.507Z,95771.20
2022-08-03T06:36:39.487Z,95773.05
2022-08-03T06:39:08.320Z,95776.70
2022-08-03T06:41:37.274Z,95777.20
2022-08-03T06:44:08.523Z,95772.11
2022-08-03T06:46:37.516Z,95772.45
2022-08-03T06:49:04.460Z,95770.79
2022-08-03T06:52:06.209Z,95767.61
2022-08-03T06:54:18.633Z,95765.44
2022-08-03T06:56:45.340Z,95766.23
2022-08-03T07:00:06.008Z,95767.15
2022-08-03T07:01:59.339Z,95767.45
2022-08-03T07:04:26.423Z,95767.64
2022-08-03T07:06:54.776Z,95763.89
2022-08-03T07:09:22.227Z,95763.84
2022-08-03T07:11:49.028Z,95758.86
2022-08-03T07:14:15.878Z,95760.17
2022-08-03T07:16:42.965Z,95760.02
2022-08-03T07:19:10.118Z,95757.32
2022-08-03T07:21:37.081Z,95755.04
2022-08-03T07:24:04.525Z,95759.31
2022-08-03T07:26:31.477Z,95763.38
2022-08-03T07:29:00.364Z,95758.64
2022-08-03T07:31:27.326Z,95761.87
2022-08-03T07:34:01.323Z,95753.31
2022-08-03T07:36:28.270Z,95755.43
2022-08-03T07:38:55.013Z,95760.98
2022-08-03T07:41:21.960Z,95759.05
2022-08-03T07:43:48.805Z,95762.19
2022-08-03T07:46:15.937Z,95765.30
2022-08-03T07:48:43.017Z,95759.84
2022-08-03T07:51:09.785Z,95764.22
2022-08-03T07:53:41.402Z,95762.32
2022-08-03T07:56:16.209Z,95764.70
2022-08-03T07:58:43.179Z,95770.86
2022-08-03T08:01:10.151Z,95771.10
2022-08-03T08:03:52.877Z,95774.77
2022-08-03T08:06:21.335Z,95775.72
2022-08-03T08:08:48.306Z,95773.55
2022-08-03T08:11:15.331Z,95773.89
2022-08-03T08:13:42.107Z,95772.89
2022-08-03T08:16:09.119Z,95773.60
2022-08-03T08:18:36.169Z,95776.02
2022-08-03T08:21:03.133Z,95775.41
2022-08-03T08:23:32.602Z,95774.61
2022-08-03T08:26:08.603Z,95775.88
2022-08-03T08:28:35.262Z,95776.16
2022-08-03T08:31:02.285Z,95779.98
2022-08-03T08:33:42.039Z,95779.73
2022-08-03T08:36:15.664Z,95782.65
2022-08-03T08:38:44.668Z,95780.48
2022-08-03T08:41:13.507Z,95778.67
2022-08-03T08:43:41.369Z,95780.63
2022-08-03T08:46:12.028Z,95779.27
2022-08-03T08:48:41.519Z,95778.20
2022-08-03T08:51:11.323Z,95777.89
2022-08-03T08:53:41.401Z,95776.55
2022-08-03T08:56:15.004Z,95775.87
2022-08-03T08:58:44.083Z,95778.61
2022-08-03T09:01:11.063Z,95775.56
2022-08-03T09:03:38.559Z,95773.61
2022-08-03T09:06:06.230Z,95772.73
2022-08-03T09:08:33.441Z,95775.67
2022-08-03T09:11:01.453Z,95762.80
2022-08-03T09:13:30.033Z,95764.52
2022-08-03T09:16:21.047Z,95761.83
2022-08-03T09:18:51.475Z,95763.67
2022-08-03T09:21:32.024Z,95763.31
2022-08-03T09:24:03.400Z,95764.80
2022-08-03T09:26:34.230Z,95767.52
2022-08-03T09:29:13.919Z,95771.58
2022-08-03T09:31:45.692Z,95768.08
2022-08-03T09:34:15.072Z,95762.87
2022-08-03T09:36:42.803Z,95763.45
2022-08-03T09:39:15.523Z,95769.46
2022-08-03T09:41:48.804Z,95764.52
2022-08-03T09:44:24.391Z,95762.61
2022-08-03T09:46:56.457Z,95762.95
2022-08-03T09:49:24.293Z,95764.68
2022-08-03T09:52:37.945Z,95761.17
2022-08-03T09:54:39.791Z,95754.58
2022-08-03T09:57:07.126Z,95758.91
2022-08-03T09:59:34.890Z,95762.06
2022-08-03T10:02:01.977Z,95755.38
2022-08-03T10:04:29.201Z,95761.39
2022-08-03T10:07:08.873Z,95757.70
2022-08-03T10:09:54.365Z,95754.35
2022-08-03T10:12:21.503Z,95750.35
2022-08-03T10:14:48.343Z,95753.24
2022-08-03T10:17:15.414Z,95752.69
2022-08-03T10:19:42.583Z,95749.47
2022-08-03T10:22:23.289Z,95748.14
2022-08-03T10:25:06.129Z,95748.05
2022-08-03T10:27:39.735Z,95745.83
2022-08-03T10:30:07.879Z,95746.70
2022-08-03T10:32:41.775Z,95745.45
2022-08-03T10:35:19.782Z,95746.84
2022-08-03T10:38:09.279Z,95744.77
2022-08-03T10:40:55.910Z,95745.73
2022-08-03T10:43:40.981Z,95737.64
2022-08-03T10:46:07.997Z,95736.94
2022-08-03T10:48:36.493Z,95735.08
2022-08-03T10:51:04.367Z,95734.25
2022-08-03T10:53:41.734Z,95732.67
2022-08-03T10:56:51.760Z,95734.07
2022-08-03T10:59:39.789Z,95732.86
2022-08-03T11:02:09.370Z,95730.15
2022-08-03T11:04:36.057Z,95730.43
2022-08-03T11:07:23.779Z,95731.77
2022-08-03T11:09:51.836Z,95727.16
2022-08-03T11:12:32.951Z,95724.86
2022-08-03T11:15:03.737Z,95721.80
2022-08-03T11:17:33.285Z,95723.26
2022-08-03T11:20:00.122Z,95721.64
2022-08-03T11:22:51.225Z,95717.05
2022-08-03T11:25:53.941Z,95720.27
2022-08-03T11:28:24.774Z,95715.89
2022-08-03T11:30:52.304Z,95713.06
2022-08-03T11:33:30.179Z,95714.02
2022-08-03T11:36:01.936Z,95709.31
2022-08-03T11:38:29.109Z,95705.13
2022-08-03T11:40:55.859Z,95701.75
2022-08-03T11:43:30.682Z,95701.48
2022-08-03T11:46:03.861Z,95702.23
2022-08-03T11:48:33.473Z,95697.24
2022-08-03T11:51:07.041Z,95695.34
2022-08-03T11:53:34.012Z,95694.92
2022-08-03T11:56:13.089Z,95690.54
2022-08-03T11:59:18.698Z,95688.07
2022-08-03T12:01:37.279Z,95690.90
2022-08-03T12:04:06.039Z,95684.73
2022-08-03T12:06:53.167Z,95686.95
2022-08-03T12:09:21.355Z,95683.13
2022-08-03T12:11:51.069Z,95679.73
2022-08-03T12:14:48.637Z,95680.18
2022-08-03T12:17:17.115Z,95676.11
2022-08-03T12:19:45.002Z,95670.88
2022-08-03T12:22:13.024Z,95666.70
2022-08-03T12:24:46.601Z,95665.87
2022-08-03T12:27:24.640Z,95666.85
2022-08-03T12:29:57.233Z,95669.83
2022-08-03T12:32:27.888Z,95667.33
2022-08-03T12:35:00.033Z,95667.06
2022-08-03T12:37:27.907Z,95667.31
2022-08-03T12:40:02.163Z,95664.15
2022-08-03T12:42:37.197Z,95659.29
2022-08-03T12:45:31.489Z,95663.94
2022-08-03T12:48:02.170Z,95662.02
2022-08-03T12:50:31.337Z,95662.23
2022-08-03T12:53:00.692Z,95662.02
2022-08-03T12:55:33.367Z,95657.58
2022-08-03T12:58:35.130Z,95658.14
2022-08-03T13:01:09.985Z,95656.01
2022-08-03T13:03:43.451Z,95658.85
2022-08-03T13:06:21.779Z,95655.75
2022-08-03T13:08:50.702Z,95654.06
2022-08-03T13:11:57.913Z,95650.42
2022-08-03T13:14:23.751Z,95649.85
2022-08-03T13:16:51.781Z,95647.13
2022-08-03T13:19:18.714Z,95650.72
2022-08-03T13:21:53.614Z,95649.54
2022-08-03T13:24:32.071Z,95646.58
2022-08-03T13:26:59.957Z,95647.77
2022-08-03T13:29:26.683Z,95646.57
2022-08-03T13:31:53.638Z,95645.95
2022-08-03T13:34:23.583Z,95644.40
2022-08-03T13:37:10.130Z,95640.64
2022-08-03T13:39:57.381Z,95640.13
2022-08-03T13:42:25.665Z,95637.68
2022-08-03T13:44:52.688Z,95637.21
2022-08-03T13:47:20.215Z,95633.41
2022-08-03T13:49:56.973Z,95634.51
2022-08-03T13:52:27.971Z,95632.27
2022-08-03T13:54:54.935Z,95635.90
2022-08-03T13:58:18.927Z,95635.02
2022-08-03T14:00:09.595Z,95632.82
2022-08-03T14:02:36.499Z,95634.73
2022-08-03T14:05:03.794Z,95640.79
2022-08-03T14:07:30.844Z,95636.81
2022-08-03T14:09:57.899Z,95640.23
2022-08-03T14:12:24.878Z,95640.31
2022-08-03T14:14:51.657Z,95644.34
2022-08-03T14:17:19.198Z,95638.19
2022-08-03T14:19:52.916Z,95633.77
2022-08-03T14:22:21.409Z,95634.34
2022-08-03T14:24:49.206Z,95634.53
2022-08-03T14:27:16.699Z,95632.16
2022-08-03T14:29:43.424Z,95625.86
2022-08-03T14:32:13.298Z,95624.33
2022-08-03T14:34:41.005Z,95623.52
2022-08-03T14:37:07.930Z,95624.73
2022-08-03T14:42:23.361Z,95620.04
2022-08-03T14:44:50.378Z,95628.98
2022-08-03T14:47:17.172Z,95624.65
2022-08-03T14:50:36.560Z,95629.13
2022-08-03T14:52:32.129Z,95628.36
2022-08-03T14:54:59.772Z,95621.41
2022-08-03T14:57:27.444Z,95623.30
2022-08-03T14:59:56.712Z,95620.89
2022-08-03T15:02:25.316Z,95615.09
2022-08-03T15:04:52.671Z,95612.07
2022-08-03T15:07:20.064Z,95612.92
2022-08-03T15:09:47.151Z,95613.83
2022-08-03T15:12:14.136Z,95613.48
2022-08-03T15:14:41.117Z,95615.53
2022-08-03T15:17:08.344Z,95613.68
2022-08-03T15:20:02.795Z,95608.52
2022-08-03T15:22:24.957Z,95611.16
2022-08-03T15:24:53.477Z,95607.11
2022-08-03T15:27:20.706Z,95606.80
2022-08-03T15:30:05.129Z,95607.39
2022-08-03T15:32:35.693Z,95606.23
2022-08-03T15:35:02.664Z,95605.62
2022-08-03T15:37:29.453Z,95605.89
2022-08-03T15:40:00.118Z,95599.83
2022-08-03T15:42:30.899Z,95600.23
2022-08-03T15:44:58.139Z,95597.42
2022-08-03T15:47:25.856Z,95602.63
2022-08-03T15:49:52.720Z,95601.17
2022-08-03T15:52:19.561Z,95602.11
2022-08-03T15:54:46.365Z,95597.65
2022-08-03T15:57:13.188Z,95600.11
2022-08-03T15:59:40.198Z,95598.11
2022-08-03T16:02:07.158Z,95598.15
2022-08-03T16:04:34.090Z,95594.16
2022-08-03T16:07:00.936Z,95592.36
2022-08-03T16:09:43.482Z,95595.05
2022-08-03T16:12:15.495Z,95591.27
2022-08-03T16:14:52.386Z,95590.38
2022-08-03T16:17:21.045Z,95590.64
2022-08-03T16:19:48.144Z,95592.32
2022-08-03T16:22:17.026Z,95592.09
2022-08-03T16:24:46.947Z,95590.83
2022-08-03T16:27:37.221Z,95594.81
2022-08-03T16:30:01.762Z,95594.59
2022-08-03T16:32:28.776Z,95596.30
2022-08-03T16:34:55.824Z,95598.46
2022-08-03T16:37:38.078Z,95596.32
2022-08-03T16:40:17.430Z,95600.83
2022-08-03T16:42:47.187Z,95606.88
2022-08-03T16:45:14.579Z,95603.11
2022-08-03T16:47:41.504Z,95606.77
2022-08-03T16:50:15.561Z,95608.09
2022-08-03T16:52:47.114Z,95612.63
2022-08-03T16:55:15.827Z,95616.92
2022-08-03T16:57:59.291Z,95617.08
2022-08-03T17:00:33.735Z,95618.17
2022-08-03T17:03:12.574Z,95619.73
2022-08-03T17:05:49.799Z,95619.02
2022-08-03T17:08:26.363Z,95625.48
2022-08-03T17:10:55.482Z,95624.59
2022-08-03T17:13:22.998Z,95626.38
2022-08-03T17:16:07.551Z,95629.19
2022-08-03T17:18:47.314Z,95630.98
2022-08-03T17:21:15.582Z,95635.08
2022-08-03T17:23:58.247Z,95636.77
2022-08-03T17:26:30.349Z,95636.05
2022-08-03T17:29:12.925Z,95633.16
2022-08-03T17:31:49.055Z,95636.80
2022-08-03T17:34:18.899Z,95636.97
2022-08-03T17:37:03.751Z,95637.58
2022-08-03T17:39:57.052Z,95643.71
2022-08-03T17:42:30.679Z,95644.23
2022-08-03T17:45:02.267Z,95642.36
2022-08-03T17:47:41.155Z,95643.56
2022-08-03T17:50:24.191Z,95643.48
2022-08-03T17:53:07.702Z,95644.81
2022-08-03T17:55:56.227Z,95649.27
2022-08-03T17:58:57.593Z,95651.80
2022-08-03T18:02:02.076Z,95651.77
2022-08-03T18:04:41.569Z,95656.92
2022-08-03T18:07:12.702Z,95661.10
2022-08-03T18:10:04.349Z,95663.36
2022-08-03T18:12:53.028Z,95663.67
2022-08-03T18:15:26.235Z,95670.98
2022-08-03T18:18:02.253Z,95675.46
2022-08-03T18:20:45.788Z,95680.77
2022-08-03T18:23:24.755Z,95678.98
2022-08-03T18:26:07.527Z,95685.08
2022-08-03T18:28:39.104Z,95687.60
2022-08-03T18:31:12.129Z,95688.30
2022-08-03T18:36:30.299Z,95696.10
2022-08-03T18:39:01.662Z,95697.45
2022-08-03T18:41:34.646Z,95698.13
2022-08-03T18:44:08.146Z,95702.91
2022-08-03T18:47:07.284Z,95705.08
2022-08-03T18:50:07.710Z,95708.41
2022-08-03T18:52:45.915Z,95708.91
2022-08-03T18:56:01.681Z,95712.99
2022-08-03T18:59:30.057Z,95716.98
2022-08-03T19:02:33.622Z,95717.09
2022-08-03T19:05:06.554Z,95718.67
2022-08-03T19:07:36.420Z,95721.80
2022-08-03T19:10:09.340Z,95723.52
2022-08-03T19:12:39.991Z,95722.77
2022-08-03T19:15:13.439Z,95727.58
2022-08-03T19:17:53.621Z,95729.79
2022-08-03T19:20:23.147Z,95727.60
2022-08-03T19:22:53.503Z,95726.83
2022-08-03T19:25:35.049Z,95724.95
2022-08-03T19:28:07.381Z,95726.89
2022-08-03T19:30:39.091Z,95729.45
2022-08-03T19:33:09.692Z,95729.56
2022-08-03T19:35:51.755Z,95730.86
2022-08-03T19:38:28.186Z,95733.23
2022-08-03T19:40:59.852Z,95733.70
2022-08-03T19:43:52.763Z,95730.57
2022-08-03T19:46:27.698Z,95732.96
2022-08-03T19:49:10.691Z,95730.64
2022-08-03T19:52:01.628Z,95734.09
2022-08-03T19:54:53.919Z,95730.88
2022-08-03T19:57:24.567Z,95730.21
2022-08-03T19:59:53.109Z,95727.06
2022-08-03T20:02:25.555Z,95728.61
2022-08-03T20:04:56.610Z,95733.17
2022-08-03T20:07:25.410Z,95732.65
2022-08-03T20:09:54.512Z,95731.98
2022-08-03T20:12:28.844Z,95732.86
2022-08-03T20:14:57.505Z,95730.40
2022-08-03T20:17:55.029Z,95729.11
2022-08-03T20:20:13.236Z,95725.73
2022-08-03T20:22:45.541Z,95725.05
2022-08-03T20:25:16.279Z,95725.61
2022-08-03T20:28:07.686Z,95725.43
2022-08-03T20:30:39.226Z,95727.70
2022-08-03T20:33:09.542Z,95730.98
2022-08-03T20:35:36.276Z,95728.86
2022-08-03T20:38:03.610Z,95726.30
2022-08-03T20:40:30.771Z,95722.90
2022-08-03T20:42:59.258Z,95721.95
2022-08-03T20:46:00.027Z,95727.34
2022-08-03T20:48:17.979Z,95723.54
2022-08-03T20:50:49.200Z,95725.77
2022-08-03T20:53:57.012Z,95728.32
2022-08-03T20:56:04.896Z,95729.29
2022-08-03T20:58:33.177Z,95729.24
2022-08-03T21:01:00.823Z,95731.52
2022-08-03T21:03:40.663Z,95733.17
2022-08-03T21:06:18.829Z,95730.42
2022-08-03T21:09:04.808Z,95729.96
2022-08-03T21:11:41.982Z,95727.55
2022-08-03T21:12:58.400Z,95689.22
2022-08-03T21:14:18.287Z,95726.89
2022-08-03T21:16:47.947Z,95725.84
2022-08-03T21:19:17.243Z,95724.95
2022-08-03T21:21:46.160Z,95727.27
2022-08-03T21:24:14.619Z,95724.46
2022-08-03T21:26:43.857Z,95723.89
2022-08-03T21:29:13.752Z,95729.61
2022-08-03T21:31:40.708Z,95727.91
2022-08-03T21:34:07.656Z,95728.91
2022-08-03T21:36:36.961Z,95730.98
2022-08-03T21:39:07.480Z,95731.02
2022-08-03T21:41:37.302Z,95733.58
2022-08-03T21:44:05.739Z,95730.21
2022-08-03T21:46:40.074Z,95730.46
2022-08-03T21:50:04.514Z,95731.32
2022-08-03T21:52:00.098Z,95729.48
2022-08-03T21:54:40.552Z,95725.52
2022-08-03T21:57:23.913Z,95724.46
2022-08-03T21:59:56.426Z,95727.95
2022-08-03T22:02:28.846Z,95729.63
2022-08-03T22:04:58.699Z,95726.05
2022-08-03T22:07:28.588Z,95726.24
2022-08-03T22:09:57.993Z,95725.20
2022-08-03T22:12:27.011Z,95728.77
2022-08-03T22:15:00.269Z,95728.04
2022-08-03T22:17:54.573Z,95730.16
2022-08-03T22:20:19.045Z,95732.73
2022-08-03T22:22:52.168Z,95733.84
2022-08-03T22:25:35.133Z,95731.58
2022-08-03T22:28:07.946Z,95733.07
2022-08-03T22:30:35.730Z,95735.93
2022-08-03T22:33:05.242Z,95734.74
2022-08-03T22:35:50.992Z,95732.56
2022-08-03T22:38:18.813Z,95732.70
2022-08-03T22:40:50.258Z,95732.41
2022-08-03T22:43:17.378Z,95737.24
2022-08-03T22:46:11.253Z,95737.58
2022-08-03T22:48:41.053Z,95738.58
2022-08-03T22:51:09.150Z,95741.06
2022-08-03T22:53:36.495Z,95739.37
2022-08-03T22:56:03.977Z,95740.70
2022-08-03T22:58:30.903Z,95736.98
2022-08-03T23:01:03.298Z,95742.30
2022-08-03T23:03:59.782Z,95745.33
2022-08-03T23:06:23.314Z,95752.45
2022-08-03T23:08:50.661Z,95747.43
2022-08-03T23:11:18.723Z,95746.42
2022-08-03T23:13:53.856Z,95742.67
2022-08-03T23:16:28.857Z,95744.16
2022-08-03T23:18:59.228Z,95746.44
2022-08-03T23:22:00.592Z,95748.16
2022-08-03T23:24:25.295Z,95748.74
2022-08-03T23:26:58.496Z,95742.82
2022-08-03T23:29:28.661Z,95744.51
2022-08-03T23:31:57.001Z,95751.20
2022-08-03T23:34:43.136Z,95748.47
2022-08-03T23:37:13.839Z,95748.28
2022-08-03T23:39:46.779Z,95748.49
2022-08-03T23:42:17.185Z,95750.38
2022-08-03T23:44:45.326Z,95753.48
2022-08-03T23:47:13.460Z,95756.86
2022-08-03T23:49:40.845Z,95754.73
2022-08-03T23:52:33.054Z,95752.79
2022-08-03T23:55:28.060Z,95751.13
2022-08-03T23:58:11.316Z,95751.66
